sensor_id;sensor_type;location;lat;lon;timestamp;temperature;humidity
45012;DHT22;63444;48.148;11.542;2023-08-20T00:00:13;26.10;91.00
45012;DHT22;63444;48.148;11.542;2023-08-20T00:02:42;26.10;91.00
45012;DHT22;63444;48.148;11.542;2023-08-20T00:05:08;26.00;91.10
45012;DHT22;63444;48.148;11.542;2023-08-20T00:07:35;26.00;91.10
45012;DHT22;63444;48.148;11.542;2023-08-20T00:10:01;26.00;91.20
45012;DHT22;63444;48.148;11.542;2023-08-20T00:12:28;25.90;91.30
45012;DHT22;63444;48.148;11.542;2023-08-20T00:15:03;25.90;91.30
45012;DHT22;63444;48.148;11.542;2023-08-20T00:17:34;25.80;91.40
45012;DHT22;63444;48.148;11.542;2023-08-20T00:20:00;25.80;91.50
45012;DHT22;63444;48.148;11.542;2023-08-20T00:22:26;25.80;91.50
45012;DHT22;63444;48.148;11.542;2023-08-20T00:24:53;25.80;91.70
45012;DHT22;63444;48.148;11.542;2023-08-20T00:27:19;25.70;91.50
45012;DHT22;63444;48.148;11.542;2023-08-20T00:29:45;25.70;91.60
45012;DHT22;63444;48.148;11.542;2023-08-20T00:32:11;25.70;91.60
45012;DHT22;63444;48.148;11.542;2023-08-20T00:34:36;25.60;91.70
45012;DHT22;63444;48.148;11.542;2023-08-20T00:37:02;25.60;91.80
45012;DHT22;63444;48.148;11.542;2023-08-20T00:39:29;25.50;91.90
45012;DHT22;63444;48.148;11.542;2023-08-20T00:41:54;25.50;92.00
45012;DHT22;63444;48.148;11.542;2023-08-20T00:44:20;25.50;92.20
45012;DHT22;63444;48.148;11.542;2023-08-20T00:46:46;25.50;92.20
45012;DHT22;63444;48.148;11.542;2023-08-20T00:49:12;25.40;92.20
45012;DHT22;63444;48.148;11.542;2023-08-20T00:51:38;25.50;92.30
45012;DHT22;63444;48.148;11.542;2023-08-20T00:54:04;25.40;92.40
45012;DHT22;63444;48.148;11.542;2023-08-20T00:56:30;25.40;92.40
45012;DHT22;63444;48.148;11.542;2023-08-20T00:58:56;25.40;92.50
45012;DHT22;63444;48.148;11.542;2023-08-20T01:01:22;25.40;92.60
45012;DHT22;63444;48.148;11.542;2023-08-20T01:03:48;25.40;92.80
45012;DHT22;63444;48.148;11.542;2023-08-20T01:06:27;25.30;92.80
45012;DHT22;63444;48.148;11.542;2023-08-20T01:12:01;25.30;93.00
45012;DHT22;63444;48.148;11.542;2023-08-20T01:14:28;25.20;93.00
45012;DHT22;63444;48.148;11.542;2023-08-20T01:16:53;25.20;93.00
45012;DHT22;63444;48.148;11.542;2023-08-20T01:19:22;25.20;93.00
45012;DHT22;63444;48.148;11.542;2023-08-20T01:22:15;25.10;93.10
45012;DHT22;63444;48.148;11.542;2023-08-20T01:28:03;25.10;93.20
45012;DHT22;63444;48.148;11.542;2023-08-20T01:30:34;25.10;93.40
45012;DHT22;63444;48.148;11.542;2023-08-20T01:33:00;25.10;93.30
45012;DHT22;63444;48.148;11.542;2023-08-20T01:35:26;25.10;93.40
45012;DHT22;63444;48.148;11.542;2023-08-20T01:37:52;25.10;93.50
45012;DHT22;63444;48.148;11.542;2023-08-20T01:40:18;25.00;93.60
45012;DHT22;63444;48.148;11.542;2023-08-20T01:42:44;25.00;93.80
45012;DHT22;63444;48.148;11.542;2023-08-20T01:45:09;25.00;94.00
45012;DHT22;63444;48.148;11.542;2023-08-20T01:47:36;24.90;94.00
45012;DHT22;63444;48.148;11.542;2023-08-20T01:50:02;24.80;94.10
45012;DHT22;63444;48.148;11.542;2023-08-20T01:52:28;24.80;94.10
45012;DHT22;63444;48.148;11.542;2023-08-20T01:54:54;24.80;94.30
45012;DHT22;63444;48.148;11.542;2023-08-20T01:57:20;24.70;94.30
45012;DHT22;63444;48.148;11.542;2023-08-20T01:59:47;24.70;94.40
45012;DHT22;63444;48.148;11.542;2023-08-20T02:02:13;24.70;94.50
45012;DHT22;63444;48.148;11.542;2023-08-20T02:04:38;24.60;94.40
45012;DHT22;63444;48.148;11.542;2023-08-20T02:07:04;24.60;94.50
45012;DHT22;63444;48.148;11.542;2023-08-20T02:09:30;24.60;94.60
45012;DHT22;63444;48.148;11.542;2023-08-20T02:11:55;24.60;94.70
45012;DHT22;63444;48.148;11.542;2023-08-20T02:14:21;24.50;94.80
45012;DHT22;63444;48.148;11.542;2023-08-20T02:16:47;24.50;94.90
45012;DHT22;63444;48.148;11.542;2023-08-20T02:19:12;24.50;95.00
45012;DHT22;63444;48.148;11.542;2023-08-20T02:21:39;24.50;95.10
45012;DHT22;63444;48.148;11.542;2023-08-20T02:24:05;24.40;95.20
45012;DHT22;63444;48.148;11.542;2023-08-20T02:26:31;24.40;95.30
45012;DHT22;63444;48.148;11.542;2023-08-20T02:28:56;24.40;95.40
45012;DHT22;63444;48.148;11.542;2023-08-20T02:31:22;24.30;95.40
45012;DHT22;63444;48.148;11.542;2023-08-20T02:33:47;24.30;95.40
45012;DHT22;63444;48.148;11.542;2023-08-20T02:36:13;24.30;95.60
45012;DHT22;63444;48.148;11.542;2023-08-20T02:38:39;24.20;95.60
45012;DHT22;63444;48.148;11.542;2023-08-20T02:41:06;24.20;95.80
45012;DHT22;63444;48.148;11.542;2023-08-20T02:43:31;24.20;96.00
45012;DHT22;63444;48.148;11.542;2023-08-20T02:45:57;24.20;96.10
45012;DHT22;63444;48.148;11.542;2023-08-20T02:48:23;24.20;96.20
45012;DHT22;63444;48.148;11.542;2023-08-20T02:50:53;24.10;96.20
45012;DHT22;63444;48.148;11.542;2023-08-20T02:53:20;24.10;96.10
45012;DHT22;63444;48.148;11.542;2023-08-20T02:55:45;24.10;96.30
45012;DHT22;63444;48.148;11.542;2023-08-20T02:58:11;24.00;96.10
45012;DHT22;63444;48.148;11.542;2023-08-20T03:00:37;24.00;96.20
45012;DHT22;63444;48.148;11.542;2023-08-20T03:03:03;23.90;96.20
45012;DHT22;63444;48.148;11.542;2023-08-20T03:05:32;23.90;96.40
45012;DHT22;63444;48.148;11.542;2023-08-20T03:07:57;23.90;96.40
45012;DHT22;63444;48.148;11.542;2023-08-20T03:10:24;23.90;96.60
45012;DHT22;63444;48.148;11.542;2023-08-20T03:12:49;23.90;96.80
45012;DHT22;63444;48.148;11.542;2023-08-20T03:15:15;23.80;97.30
45012;DHT22;63444;48.148;11.542;2023-08-20T03:17:40;23.80;97.00
45012;DHT22;63444;48.148;11.542;2023-08-20T03:20:06;23.80;97.10
45012;DHT22;63444;48.148;11.542;2023-08-20T03:22:33;23.80;97.20
45012;DHT22;63444;48.148;11.542;2023-08-20T03:24:59;23.80;97.40
45012;DHT22;63444;48.148;11.542;2023-08-20T03:27:24;23.80;97.50
45012;DHT22;63444;48.148;11.542;2023-08-20T03:29:51;23.70;97.30
45012;DHT22;63444;48.148;11.542;2023-08-20T03:32:18;23.70;97.30
45012;DHT22;63444;48.148;11.542;2023-08-20T03:34:43;23.70;97.40
45012;DHT22;63444;48.148;11.542;2023-08-20T03:37:09;23.60;97.20
45012;DHT22;63444;48.148;11.542;2023-08-20T03:39:35;23.60;97.30
45012;DHT22;63444;48.148;11.542;2023-08-20T03:42:00;23.50;97.50
45012;DHT22;63444;48.148;11.542;2023-08-20T03:44:26;23.60;97.70
45012;DHT22;63444;48.148;11.542;2023-08-20T03:46:51;23.60;97.70
45012;DHT22;63444;48.148;11.542;2023-08-20T03:49:17;23.60;97.70
45012;DHT22;63444;48.148;11.542;2023-08-20T03:51:42;23.60;97.80
45012;DHT22;63444;48.148;11.542;2023-08-20T03:54:09;23.60;97.90
45012;DHT22;63444;48.148;11.542;2023-08-20T03:56:34;23.60;98.00
45012;DHT22;63444;48.148;11.542;2023-08-20T03:59:01;23.60;98.20
45012;DHT22;63444;48.148;11.542;2023-08-20T04:01:26;23.60;98.10
45012;DHT22;63444;48.148;11.542;2023-08-20T04:03:52;23.60;98.20
45012;DHT22;63444;48.148;11.542;2023-08-20T04:06:18;23.60;98.20
45012;DHT22;63444;48.148;11.542;2023-08-20T04:08:43;23.60;98.30
45012;DHT22;63444;48.148;11.542;2023-08-20T04:11:09;23.60;98.30
45012;DHT22;63444;48.148;11.542;2023-08-20T04:13:34;23.50;98.50
45012;DHT22;63444;48.148;11.542;2023-08-20T04:16:00;23.50;98.70
45012;DHT22;63444;48.148;11.542;2023-08-20T04:18:26;23.50;98.80
45012;DHT22;63444;48.148;11.542;2023-08-20T04:20:52;23.40;98.50
45012;DHT22;63444;48.148;11.542;2023-08-20T04:23:19;23.40;98.30
45012;DHT22;63444;48.148;11.542;2023-08-20T04:25:44;23.40;98.20
45012;DHT22;63444;48.148;11.542;2023-08-20T04:28:13;23.40;98.10
45012;DHT22;63444;48.148;11.542;2023-08-20T04:30:39;23.40;98.00
45012;DHT22;63444;48.148;11.542;2023-08-20T04:33:05;23.40;97.90
45012;DHT22;63444;48.148;11.542;2023-08-20T04:35:31;23.30;97.90
45012;DHT22;63444;48.148;11.542;2023-08-20T04:37:56;23.30;97.90
45012;DHT22;63444;48.148;11.542;2023-08-20T04:40:22;23.40;97.90
45012;DHT22;63444;48.148;11.542;2023-08-20T04:42:48;23.40;97.90
45012;DHT22;63444;48.148;11.542;2023-08-20T04:45:13;23.30;98.00
45012;DHT22;63444;48.148;11.542;2023-08-20T04:47:39;23.30;98.30
45012;DHT22;63444;48.148;11.542;2023-08-20T04:50:05;23.30;98.40
45012;DHT22;63444;48.148;11.542;2023-08-20T04:52:34;23.30;98.50
45012;DHT22;63444;48.148;11.542;2023-08-20T04:55:00;23.40;98.60
45012;DHT22;63444;48.148;11.542;2023-08-20T04:57:26;23.40;98.60
45012;DHT22;63444;48.148;11.542;2023-08-20T04:59:51;23.30;98.50
45012;DHT22;63444;48.148;11.542;2023-08-20T05:02:17;23.30;98.50
45012;DHT22;63444;48.148;11.542;2023-08-20T05:04:42;23.30;98.70
45012;DHT22;63444;48.148;11.542;2023-08-20T05:07:08;23.30;98.60
45012;DHT22;63444;48.148;11.542;2023-08-20T05:09:34;23.30;98.70
45012;DHT22;63444;48.148;11.542;2023-08-20T05:12:00;23.40;98.80
45012;DHT22;63444;48.148;11.542;2023-08-20T05:14:25;23.30;98.80
45012;DHT22;63444;48.148;11.542;2023-08-20T05:16:51;23.30;98.90
45012;DHT22;63444;48.148;11.542;2023-08-20T05:19:17;23.30;99.10
45012;DHT22;63444;48.148;11.542;2023-08-20T05:21:42;23.30;99.20
45012;DHT22;63444;48.148;11.542;2023-08-20T05:24:09;23.30;99.00
45012;DHT22;63444;48.148;11.542;2023-08-20T05:26:34;23.30;99.00
45012;DHT22;63444;48.148;11.542;2023-08-20T05:29:00;23.30;98.90
45012;DHT22;63444;48.148;11.542;2023-08-20T05:31:26;23.40;98.80
45012;DHT22;63444;48.148;11.542;2023-08-20T05:33:51;23.40;98.90
45012;DHT22;63444;48.148;11.542;2023-08-20T05:36:17;23.40;98.30
45012;DHT22;63444;48.148;11.542;2023-08-20T05:38:43;23.60;98.20
45012;DHT22;63444;48.148;11.542;2023-08-20T05:41:09;23.80;98.00
45012;DHT22;63444;48.148;11.542;2023-08-20T05:43:34;24.00;97.70
45012;DHT22;63444;48.148;11.542;2023-08-20T05:46:02;24.30;97.40
45012;DHT22;63444;48.148;11.542;2023-08-20T05:48:28;24.60;96.90
45012;DHT22;63444;48.148;11.542;2023-08-20T05:50:53;24.90;96.50
45012;DHT22;63444;48.148;11.542;2023-08-20T05:53:19;25.30;96.00
45012;DHT22;63444;48.148;11.542;2023-08-20T05:55:45;25.70;95.30
45012;DHT22;63444;48.148;11.542;2023-08-20T05:58:11;26.30;94.50
45012;DHT22;63444;48.148;11.542;2023-08-20T06:00:36;26.90;93.60
45012;DHT22;63444;48.148;11.542;2023-08-20T06:03:02;27.40;92.50
45012;DHT22;63444;48.148;11.542;2023-08-20T06:05:28;28.10;91.70
45012;DHT22;63444;48.148;11.542;2023-08-20T06:07:54;28.70;90.60
45012;DHT22;63444;48.148;11.542;2023-08-20T06:10:19;29.30;89.80
45012;DHT22;63444;48.148;11.542;2023-08-20T06:12:46;29.90;88.10
45012;DHT22;63444;48.148;11.542;2023-08-20T06:15:13;30.40;86.10
45012;DHT22;63444;48.148;11.542;2023-08-20T06:17:39;30.90;84.60
45012;DHT22;63444;48.148;11.542;2023-08-20T06:20:05;31.40;83.20
45012;DHT22;63444;48.148;11.542;2023-08-20T06:22:33;31.90;81.40
45012;DHT22;63444;48.148;11.542;2023-08-20T06:24:58;32.30;80.10
45012;DHT22;63444;48.148;11.542;2023-08-20T06:27:24;32.70;78.80
45012;DHT22;63444;48.148;11.542;2023-08-20T06:29:50;33.10;77.60
45012;DHT22;63444;48.148;11.542;2023-08-20T06:32:15;33.40;76.60
45012;DHT22;63444;48.148;11.542;2023-08-20T06:34:41;33.70;75.60
45012;DHT22;63444;48.148;11.542;2023-08-20T06:37:06;34.00;74.20
45012;DHT22;63444;48.148;11.542;2023-08-20T06:39:32;34.10;72.70
45012;DHT22;63444;48.148;11.542;2023-08-20T06:41:57;34.20;72.80
45012;DHT22;63444;48.148;11.542;2023-08-20T06:44:23;34.20;72.20
45012;DHT22;63444;48.148;11.542;2023-08-20T06:46:49;34.40;71.80
45012;DHT22;63444;48.148;11.542;2023-08-20T06:49:14;34.40;71.70
45012;DHT22;63444;48.148;11.542;2023-08-20T06:51:40;34.40;71.10
45012;DHT22;63444;48.148;11.542;2023-08-20T06:54:06;34.50;71.30
45012;DHT22;63444;48.148;11.542;2023-08-20T06:56:32;34.60;70.60
45012;DHT22;63444;48.148;11.542;2023-08-20T06:58:58;34.80;70.10
45012;DHT22;63444;48.148;11.542;2023-08-20T07:01:23;34.90;69.10
45012;DHT22;63444;48.148;11.542;2023-08-20T07:03:49;35.10;68.90
45012;DHT22;63444;48.148;11.542;2023-08-20T07:06:14;35.10;68.40
45012;DHT22;63444;48.148;11.542;2023-08-20T07:08:42;35.10;68.70
45012;DHT22;63444;48.148;11.542;2023-08-20T07:11:08;35.30;68.20
45012;DHT22;63444;48.148;11.542;2023-08-20T07:13:33;35.50;67.90
45012;DHT22;63444;48.148;11.542;2023-08-20T07:15:59;35.90;66.90
45012;DHT22;63444;48.148;11.542;2023-08-20T07:18:25;36.10;66.30
45012;DHT22;63444;48.148;11.542;2023-08-20T07:20:51;36.30;65.90
45012;DHT22;63444;48.148;11.542;2023-08-20T07:23:18;36.50;65.20
45012;DHT22;63444;48.148;11.542;2023-08-20T07:25:44;36.60;63.30
45012;DHT22;63444;48.148;11.542;2023-08-20T07:28:10;36.70;62.60
45012;DHT22;63444;48.148;11.542;2023-08-20T07:30:36;36.80;62.30
45012;DHT22;63444;48.148;11.542;2023-08-20T07:33:03;36.90;62.70
45012;DHT22;63444;48.148;11.542;2023-08-20T07:35:28;37.00;62.60
45012;DHT22;63444;48.148;11.542;2023-08-20T07:37:54;37.10;62.60
45012;DHT22;63444;48.148;11.542;2023-08-20T07:40:20;37.20;62.60
45012;DHT22;63444;48.148;11.542;2023-08-20T07:42:45;37.20;62.30
45012;DHT22;63444;48.148;11.542;2023-08-20T07:45:11;37.20;61.50
45012;DHT22;63444;48.148;11.542;2023-08-20T07:47:37;37.20;61.20
45012;DHT22;63444;48.148;11.542;2023-08-20T07:50:06;37.20;62.00
45012;DHT22;63444;48.148;11.542;2023-08-20T07:52:32;37.10;59.90
45012;DHT22;63444;48.148;11.542;2023-08-20T07:54:58;37.00;58.90
45012;DHT22;63444;48.148;11.542;2023-08-20T07:57:24;37.00;59.30
45012;DHT22;63444;48.148;11.542;2023-08-20T07:59:50;36.90;59.80
45012;DHT22;63444;48.148;11.542;2023-08-20T08:02:16;36.80;59.90
45012;DHT22;63444;48.148;11.542;2023-08-20T08:04:42;36.80;59.90
45012;DHT22;63444;48.148;11.542;2023-08-20T08:07:08;36.70;59.80
45012;DHT22;63444;48.148;11.542;2023-08-20T08:09:33;36.70;59.90
45012;DHT22;63444;48.148;11.542;2023-08-20T08:11:59;36.60;60.10
45012;DHT22;63444;48.148;11.542;2023-08-20T08:14:26;36.60;60.00
45012;DHT22;63444;48.148;11.542;2023-08-20T08:16:51;36.50;60.00
45012;DHT22;63444;48.148;11.542;2023-08-20T08:19:18;36.40;59.40
45012;DHT22;63444;48.148;11.542;2023-08-20T08:21:44;36.30;59.50
45012;DHT22;63444;48.148;11.542;2023-08-20T08:24:10;36.30;60.00
45012;DHT22;63444;48.148;11.542;2023-08-20T08:26:36;36.30;59.60
45012;DHT22;63444;48.148;11.542;2023-08-20T08:29:03;36.40;59.80
45012;DHT22;63444;48.148;11.542;2023-08-20T08:31:29;36.40;59.00
45012;DHT22;63444;48.148;11.542;2023-08-20T08:33:54;36.20;59.60
45012;DHT22;63444;48.148;11.542;2023-08-20T08:36:20;36.20;59.70
45012;DHT22;63444;48.148;11.542;2023-08-20T08:38:46;36.10;59.90
45012;DHT22;63444;48.148;11.542;2023-08-20T08:41:12;36.10;59.80
45012;DHT22;63444;48.148;11.542;2023-08-20T08:43:39;36.20;59.90
45012;DHT22;63444;48.148;11.542;2023-08-20T08:46:07;36.20;59.80
45012;DHT22;63444;48.148;11.542;2023-08-20T08:48:34;36.20;59.70
45012;DHT22;63444;48.148;11.542;2023-08-20T08:51:03;36.30;60.00
45012;DHT22;63444;48.148;11.542;2023-08-20T08:53:30;36.10;60.00
45012;DHT22;63444;48.148;11.542;2023-08-20T08:55:57;36.20;60.10
45012;DHT22;63444;48.148;11.542;2023-08-20T08:58:23;36.10;59.60
45012;DHT22;63444;48.148;11.542;2023-08-20T09:00:49;36.10;59.40
45012;DHT22;63444;48.148;11.542;2023-08-20T09:03:15;36.20;59.60
45012;DHT22;63444;48.148;11.542;2023-08-20T09:05:54;36.30;58.30
45012;DHT22;63444;48.148;11.542;2023-08-20T09:08:21;36.20;57.90
45012;DHT22;63444;48.148;11.542;2023-08-20T09:10:50;36.00;58.50
45012;DHT22;63444;48.148;11.542;2023-08-20T09:13:16;35.90;58.60
45012;DHT22;63444;48.148;11.542;2023-08-20T09:15:42;35.90;58.30
45012;DHT22;63444;48.148;11.542;2023-08-20T09:18:09;35.90;58.10
45012;DHT22;63444;48.148;11.542;2023-08-20T09:20:36;35.90;58.70
45012;DHT22;63444;48.148;11.542;2023-08-20T09:23:02;35.80;59.70
45012;DHT22;63444;48.148;11.542;2023-08-20T09:25:28;35.90;59.00
45012;DHT22;63444;48.148;11.542;2023-08-20T09:27:54;35.90;59.20
45012;DHT22;63444;48.148;11.542;2023-08-20T09:30:20;35.90;59.40
45012;DHT22;63444;48.148;11.542;2023-08-20T09:33:09;35.90;59.30
45012;DHT22;63444;48.148;11.542;2023-08-20T09:35:35;35.90;59.90
45012;DHT22;63444;48.148;11.542;2023-08-20T09:38:04;35.90;60.30
45012;DHT22;63444;48.148;11.542;2023-08-20T09:40:30;35.90;60.20
45012;DHT22;63444;48.148;11.542;2023-08-20T09:42:56;35.90;60.30
45012;DHT22;63444;48.148;11.542;2023-08-20T09:45:24;36.10;60.30
45012;DHT22;63444;48.148;11.542;2023-08-20T09:47:54;36.10;60.70
45012;DHT22;63444;48.148;11.542;2023-08-20T09:50:22;36.20;60.30
45012;DHT22;63444;48.148;11.542;2023-08-20T09:53:01;36.20;59.80
45012;DHT22;63444;48.148;11.542;2023-08-20T09:55:31;36.20;59.80
45012;DHT22;63444;48.148;11.542;2023-08-20T09:57:58;36.20;59.20
45012;DHT22;63444;48.148;11.542;2023-08-20T10:00:25;36.30;59.00
45012;DHT22;63444;48.148;11.542;2023-08-20T10:02:52;36.20;58.20
45012;DHT22;63444;48.148;11.542;2023-08-20T10:05:19;36.20;58.50
45012;DHT22;63444;48.148;11.542;2023-08-20T10:07:47;36.20;58.90
45012;DHT22;63444;48.148;11.542;2023-08-20T10:10:13;36.10;57.60
45012;DHT22;63444;48.148;11.542;2023-08-20T10:12:39;36.10;56.70
45012;DHT22;63444;48.148;11.542;2023-08-20T10:15:07;36.00;56.90
45012;DHT22;63444;48.148;11.542;2023-08-20T10:17:33;36.00;57.10
45012;DHT22;63444;48.148;11.542;2023-08-20T10:20:00;36.10;57.50
45012;DHT22;63444;48.148;11.542;2023-08-20T10:24:59;35.90;57.40
45012;DHT22;63444;48.148;11.542;2023-08-20T10:27:34;35.90;57.70
45012;DHT22;63444;48.148;11.542;2023-08-20T10:30:01;35.80;57.60
45012;DHT22;63444;48.148;11.542;2023-08-20T10:32:59;35.80;57.60
45012;DHT22;63444;48.148;11.542;2023-08-20T10:35:28;35.90;58.20
45012;DHT22;63444;48.148;11.542;2023-08-20T10:38:04;35.80;58.30
45012;DHT22;63444;48.148;11.542;2023-08-20T10:43:38;35.70;58.20
45012;DHT22;63444;48.148;11.542;2023-08-20T10:48:33;35.60;58.10
45012;DHT22;63444;48.148;11.542;2023-08-20T10:51:19;35.50;58.90
45012;DHT22;63444;48.148;11.542;2023-08-20T10:56:46;35.40;59.70
45012;DHT22;63444;48.148;11.542;2023-08-20T10:59:22;35.40;59.80
45012;DHT22;63444;48.148;11.542;2023-08-20T11:01:56;35.40;59.60
45012;DHT22;63444;48.148;11.542;2023-08-20T11:04:28;35.30;59.70
45012;DHT22;63444;48.148;11.542;2023-08-20T11:06:55;35.10;59.80
45012;DHT22;63444;48.148;11.542;2023-08-20T11:09:26;35.00;59.80
45012;DHT22;63444;48.148;11.542;2023-08-20T11:11:52;34.90;59.80
45012;DHT22;63444;48.148;11.542;2023-08-20T11:14:19;34.90;60.10
45012;DHT22;63444;48.148;11.542;2023-08-20T11:16:46;35.00;59.70
45012;DHT22;63444;48.148;11.542;2023-08-20T11:19:13;34.90;59.60
45012;DHT22;63444;48.148;11.542;2023-08-20T11:21:40;35.00;59.40
45012;DHT22;63444;48.148;11.542;2023-08-20T11:24:06;34.90;59.60
45012;DHT22;63444;48.148;11.542;2023-08-20T11:26:32;34.90;58.90
45012;DHT22;63444;48.148;11.542;2023-08-20T11:29:00;34.80;58.70
45012;DHT22;63444;48.148;11.542;2023-08-20T11:31:25;34.80;59.20
45012;DHT22;63444;48.148;11.542;2023-08-20T11:33:51;34.70;59.10
45012;DHT22;63444;48.148;11.542;2023-08-20T11:36:18;34.70;58.60
45012;DHT22;63444;48.148;11.542;2023-08-20T11:38:54;34.70;58.70
45012;DHT22;63444;48.148;11.542;2023-08-20T11:41:21;34.80;58.00
45012;DHT22;63444;48.148;11.542;2023-08-20T11:43:50;34.70;58.20
45012;DHT22;63444;48.148;11.542;2023-08-20T11:46:19;34.70;58.00
45012;DHT22;63444;48.148;11.542;2023-08-20T11:49:07;34.70;57.70
45012;DHT22;63444;48.148;11.542;2023-08-20T11:51:44;34.70;57.20
45012;DHT22;63444;48.148;11.542;2023-08-20T11:54:13;34.60;57.40
45012;DHT22;63444;48.148;11.542;2023-08-20T11:56:43;34.60;57.30
45012;DHT22;63444;48.148;11.542;2023-08-20T11:59:10;34.60;56.50
45012;DHT22;63444;48.148;11.542;2023-08-20T12:01:37;34.50;56.50
45012;DHT22;63444;48.148;11.542;2023-08-20T12:04:07;34.50;55.90
45012;DHT22;63444;48.148;11.542;2023-08-20T12:06:35;34.50;55.90
45012;DHT22;63444;48.148;11.542;2023-08-20T12:09:01;34.50;56.20
45012;DHT22;63444;48.148;11.542;2023-08-20T12:11:29;34.60;56.40
45012;DHT22;63444;48.148;11.542;2023-08-20T12:13:55;34.60;56.40
45012;DHT22;63444;48.148;11.542;2023-08-20T12:16:24;34.50;56.50
45012;DHT22;63444;48.148;11.542;2023-08-20T12:18:53;34.60;56.40
45012;DHT22;63444;48.148;11.542;2023-08-20T12:21:18;34.60;55.90
45012;DHT22;63444;48.148;11.542;2023-08-20T12:23:44;34.50;56.30
45012;DHT22;63444;48.148;11.542;2023-08-20T12:26:10;34.50;55.90
45012;DHT22;63444;48.148;11.542;2023-08-20T12:28:35;34.50;56.80
45012;DHT22;63444;48.148;11.542;2023-08-20T12:31:01;34.40;56.70
45012;DHT22;63444;48.148;11.542;2023-08-20T12:33:26;34.30;56.90
45012;DHT22;63444;48.148;11.542;2023-08-20T12:35:54;34.20;56.20
45012;DHT22;63444;48.148;11.542;2023-08-20T12:38:20;34.10;56.20
45012;DHT22;63444;48.148;11.542;2023-08-20T12:40:46;34.10;56.30
45012;DHT22;63444;48.148;11.542;2023-08-20T12:43:11;34.10;56.50
45012;DHT22;63444;48.148;11.542;2023-08-20T12:45:37;34.10;57.70
45012;DHT22;63444;48.148;11.542;2023-08-20T12:48:04;34.00;58.40
45012;DHT22;63444;48.148;11.542;2023-08-20T12:50:30;34.00;57.90
45012;DHT22;63444;48.148;11.542;2023-08-20T12:52:56;34.00;58.10
45012;DHT22;63444;48.148;11.542;2023-08-20T12:55:22;33.90;59.10
45012;DHT22;63444;48.148;11.542;2023-08-20T12:57:56;33.90;59.30
45012;DHT22;63444;48.148;11.542;2023-08-20T13:00:23;33.80;59.30
45012;DHT22;63444;48.148;11.542;2023-08-20T13:02:50;33.80;58.70
45012;DHT22;63444;48.148;11.542;2023-08-20T13:05:16;33.80;58.40
45012;DHT22;63444;48.148;11.542;2023-08-20T13:07:42;33.80;58.50
45012;DHT22;63444;48.148;11.542;2023-08-20T13:10:08;33.80;56.80
45012;DHT22;63444;48.148;11.542;2023-08-20T13:12:34;33.70;57.00
45012;DHT22;63444;48.148;11.542;2023-08-20T13:15:00;33.80;59.20
45012;DHT22;63444;48.148;11.542;2023-08-20T13:17:29;33.70;59.50
45012;DHT22;63444;48.148;11.542;2023-08-20T13:19:55;33.70;59.80
45012;DHT22;63444;48.148;11.542;2023-08-20T13:22:21;33.70;60.20
45012;DHT22;63444;48.148;11.542;2023-08-20T13:24:47;33.70;60.50
45012;DHT22;63444;48.148;11.542;2023-08-20T13:27:13;33.70;60.80
45012;DHT22;63444;48.148;11.542;2023-08-20T13:29:40;33.70;61.10
45012;DHT22;63444;48.148;11.542;2023-08-20T13:32:05;33.70;61.20
45012;DHT22;63444;48.148;11.542;2023-08-20T13:34:31;33.70;61.20
45012;DHT22;63444;48.148;11.542;2023-08-20T13:36:57;33.70;60.20
45012;DHT22;63444;48.148;11.542;2023-08-20T13:39:23;33.70;61.10
45012;DHT22;63444;48.148;11.542;2023-08-20T13:41:49;33.60;61.10
45012;DHT22;63444;48.148;11.542;2023-08-20T13:44:15;33.60;61.20
45012;DHT22;63444;48.148;11.542;2023-08-20T13:46:40;33.60;61.00
45012;DHT22;63444;48.148;11.542;2023-08-20T13:49:07;33.50;60.90
45012;DHT22;63444;48.148;11.542;2023-08-20T13:51:32;33.60;61.00
45012;DHT22;63444;48.148;11.542;2023-08-20T13:53:58;33.60;61.50
45012;DHT22;63444;48.148;11.542;2023-08-20T13:56:24;33.50;62.20
45012;DHT22;63444;48.148;11.542;2023-08-20T13:58:51;33.50;62.80
45012;DHT22;63444;48.148;11.542;2023-08-20T14:01:18;33.40;62.90
45012;DHT22;63444;48.148;11.542;2023-08-20T14:03:44;33.40;62.30
45012;DHT22;63444;48.148;11.542;2023-08-20T14:06:10;33.50;62.90
45012;DHT22;63444;48.148;11.542;2023-08-20T14:08:35;33.40;63.00
45012;DHT22;63444;48.148;11.542;2023-08-20T14:11:01;33.50;63.20
45012;DHT22;63444;48.148;11.542;2023-08-20T14:13:26;33.50;63.50
45012;DHT22;63444;48.148;11.542;2023-08-20T14:15:52;33.50;63.60
45012;DHT22;63444;48.148;11.542;2023-08-20T14:18:17;33.50;63.30
45012;DHT22;63444;48.148;11.542;2023-08-20T14:20:43;33.40;63.10
45012;DHT22;63444;48.148;11.542;2023-08-20T14:23:09;33.30;63.00
45012;DHT22;63444;48.148;11.542;2023-08-20T14:25:34;33.30;62.70
45012;DHT22;63444;48.148;11.542;2023-08-20T14:28:00;33.30;62.70
45012;DHT22;63444;48.148;11.542;2023-08-20T14:30:25;33.30;62.60
45012;DHT22;63444;48.148;11.542;2023-08-20T14:32:52;33.30;62.90
45012;DHT22;63444;48.148;11.542;2023-08-20T14:35:19;33.30;63.60
45012;DHT22;63444;48.148;11.542;2023-08-20T14:37:45;33.30;64.00
45012;DHT22;63444;48.148;11.542;2023-08-20T14:40:11;33.30;64.20
45012;DHT22;63444;48.148;11.542;2023-08-20T14:42:37;33.30;64.30
45012;DHT22;63444;48.148;11.542;2023-08-20T14:45:03;33.40;63.90
45012;DHT22;63444;48.148;11.542;2023-08-20T14:47:30;33.30;64.70
45012;DHT22;63444;48.148;11.542;2023-08-20T14:49:56;33.30;64.70
45012;DHT22;63444;48.148;11.542;2023-08-20T14:52:22;33.40;64.30
45012;DHT22;63444;48.148;11.542;2023-08-20T14:54:47;33.30;63.60
45012;DHT22;63444;48.148;11.542;2023-08-20T14:57:13;33.30;64.40
45012;DHT22;63444;48.148;11.542;2023-08-20T14:59:40;33.30;64.70
45012;DHT22;63444;48.148;11.542;2023-08-20T15:02:06;33.30;64.90
45012;DHT22;63444;48.148;11.542;2023-08-20T15:04:32;33.30;64.60
45012;DHT22;63444;48.148;11.542;2023-08-20T15:06:57;33.30;64.20
45012;DHT22;63444;48.148;11.542;2023-08-20T15:09:23;33.30;64.30
45012;DHT22;63444;48.148;11.542;2023-08-20T15:11:48;33.30;64.70
45012;DHT22;63444;48.148;11.542;2023-08-20T15:14:14;33.30;64.40
45012;DHT22;63444;48.148;11.542;2023-08-20T15:16:39;33.30;64.20
45012;DHT22;63444;48.148;11.542;2023-08-20T15:19:05;33.30;64.20
45012;DHT22;63444;48.148;11.542;2023-08-20T15:21:31;33.30;64.40
45012;DHT22;63444;48.148;11.542;2023-08-20T15:23:57;33.30;64.20
45012;DHT22;63444;48.148;11.542;2023-08-20T15:26:23;33.30;63.90
45012;DHT22;63444;48.148;11.542;2023-08-20T15:28:48;33.30;64.00